| Date | Time | Temp. (oF) | Dew Point (oF) | Rel. Hum. (%) | Press. (in.) | Wind Dir. | Wind Speed (mph) | Hourly Rainfall (in.) |
|
|---|---|---|---|---|---|---|---|---|---|
| 1 | 12/19 | 00:00 | 31 | 22 | 69 | 30.34 | S | 3 | 0.00 |
| 2 | 12/18 | 23:00 | 30 | 19 | 65 | 30.36 | S | 2 | 0.00 |
| 3 | 12/18 | 22:00 | 28 | 18 | 68 | 30.38 | SSE | 1 | 0.00 |
| 4 | 12/18 | 21:00 | 29 | 18 | 65 | 30.39 | ESE | 1 | 0.00 |
| 5 | 12/18 | 20:00 | 30 | 18 | 61 | 30.42 | SSE | 3 | 0.00 |
| 6 | 12/18 | 19:00 | 31 | 17 | 56 | 30.40 | SE | 0 | 0.00 |
| 7 | 12/18 | 18:00 | 33 | 15 | 49 | 30.41 | SE | 1 | 0.00 |
| 8 | 12/18 | 17:00 | 33 | 17 | 52 | 30.41 | E | 1 | 0.00 |
| 9 | 12/18 | 16:00 | 35 | 17 | 49 | 30.40 | ESE | 1 | 0.00 |
| 10 | 12/18 | 15:00 | 35 | 16 | 46 | 30.41 | ESE | 1 | 0.00 |
| 11 | 12/18 | 14:00 | 37 | 18 | 46 | 30.43 | SSE | 4 | 0.00 |
| 12 | 12/18 | 13:00 | 34 | 17 | 51 | 30.45 | N | 3 | 0.00 |
| 13 | 12/18 | 12:00 | 32 | 18 | 56 | 30.47 | NE | 3 | 0.00 |
| 14 | 12/18 | 11:00 | 29 | 19 | 66 | 30.52 | E | 2 | 0.00 |
| 15 | 12/18 | 10:00 | 25 | 24 | 98 | 30.55 | S | 2 | 0.00 |
| 16 | 12/18 | 09:00 | 19 | 18 | 100 | 30.55 | SSE | 1 | 0.00 |
| 17 | 12/18 | 08:00 | 13 | 12 | 99 | 30.54 | ENE | 0 | 0.00 |
| 18 | 12/18 | 07:00 | 13 | 12 | 98 | 30.52 | NE | 0 | 0.00 |
| 19 | 12/18 | 06:00 | 13 | 12 | 97 | 30.50 | WNW | 1 | 0.00 |
| 20 | 12/18 | 05:00 | 14 | 13 | 97 | 30.50 | SW | 0 | 0.00 |
| 21 | 12/18 | 04:00 | 15 | 14 | 96 | 30.48 | N | 0 | 0.00 |
| 22 | 12/18 | 03:00 | 16 | 14 | 95 | 30.48 | ESE | 2 | 0.00 |
| 23 | 12/18 | 02:00 | 17 | 15 | 95 | 30.47 | N | 0 | 0.00 |
| 24 | 12/18 | 01:00 | 17 | 15 | 93 | 30.45 | ENE | 0 | 0.00 |